Hinckley, Utah
Current Conditions -  °F | °C
As of 5:15 AM on Monday 20 Oct 2014 (Local Time) from KDTA Reporting Station
Clear Clear  
Wind Chill: 46°   Ceiling: Unl
Heat Index: 46°   Visibility: 10mi
Dew Point: 34°   Wind: 3mph
Humidity: 62%   Direction: 140°SE
Pressure: 30.06"   Gusts: NA
Location:  39.32°N, 112.67°W
Report Text: KDTA 201115Z AUTO 14003KT 10SM CLR 08/01 A3006 RMK AO1 T00800012
Loading
Personal Weather Stations






























Interactive Weather Map
Tropical Storm Tracking
New forecast layout! Learn more

10-Day Weather Forecast

Advertisements
Track Severe Weather on mobile